sensor_id;sensor_type;location;lat;lon;timestamp;pressure;altitude;pressure_sealevel;temperature;humidity
15670;BME280;18524;45.190;5.732;2023-01-31T00:04:44;100203.72;;;4.62;70.85
15670;BME280;18524;45.190;5.732;2023-01-31T00:09:34;100187.84;;;4.70;70.70
15670;BME280;18524;45.190;5.732;2023-01-31T00:14:25;100183.84;;;4.39;71.44
15670;BME280;18524;45.190;5.732;2023-01-31T00:19:15;100172.75;;;4.58;72.01
15670;BME280;18524;45.190;5.732;2023-01-31T00:24:05;100178.56;;;4.41;71.87
15670;BME280;18524;45.190;5.732;2023-01-31T00:28:57;100183.78;;;4.41;71.79
15670;BME280;18524;45.190;5.732;2023-01-31T00:33:49;100175.50;;;4.31;72.48
15670;BME280;18524;45.190;5.732;2023-01-31T00:38:40;100167.72;;;4.31;72.07
15670;BME280;18524;45.190;5.732;2023-01-31T00:43:36;100178.69;;;4.38;72.33
15670;BME280;18524;45.190;5.732;2023-01-31T00:48:28;100176.22;;;4.35;72.92
15670;BME280;18524;45.190;5.732;2023-01-31T00:53:18;100172.13;;;4.06;73.76
15670;BME280;18524;45.190;5.732;2023-01-31T00:58:12;100165.66;;;4.18;73.22
15670;BME280;18524;45.190;5.732;2023-01-31T01:03:03;100173.94;;;4.04;73.71
15670;BME280;18524;45.190;5.732;2023-01-31T01:07:53;100173.38;;;3.96;74.33
15670;BME280;18524;45.190;5.732;2023-01-31T01:12:43;100177.47;;;4.01;74.56
15670;BME280;18524;45.190;5.732;2023-01-31T01:17:34;100177.84;;;3.92;75.09
15670;BME280;18524;45.190;5.732;2023-01-31T01:22:24;100175.28;;;3.91;75.32
15670;BME280;18524;45.190;5.732;2023-01-31T01:27:14;100185.97;;;3.83;75.59
15670;BME280;18524;45.190;5.732;2023-01-31T01:32:05;100198.50;;;3.70;76.15
15670;BME280;18524;45.190;5.732;2023-01-31T01:36:56;100204.50;;;3.72;75.88
15670;BME280;18524;45.190;5.732;2023-01-31T01:41:46;100193.38;;;3.69;76.12
15670;BME280;18524;45.190;5.732;2023-01-31T01:46:42;100208.81;;;3.73;76.21
15670;BME280;18524;45.190;5.732;2023-01-31T01:51:33;100219.69;;;3.58;76.24
15670;BME280;18524;45.190;5.732;2023-01-31T01:56:34;100214.34;;;3.63;76.52
15670;BME280;18524;45.190;5.732;2023-01-31T02:01:29;100227.97;;;3.44;76.56
15670;BME280;18524;45.190;5.732;2023-01-31T02:06:22;100221.13;;;3.42;76.56
15670;BME280;18524;45.190;5.732;2023-01-31T02:11:27;100228.41;;;3.31;77.47
15670;BME280;18524;45.190;5.732;2023-01-31T02:16:18;100235.19;;;3.35;77.28
15670;BME280;18524;45.190;5.732;2023-01-31T02:37:10;100250.16;;;3.78;74.53
15670;BME280;18524;45.190;5.732;2023-01-31T02:42:19;100245.91;;;3.75;74.40
15670;BME280;18524;45.190;5.732;2023-01-31T02:57:32;100264.41;;;3.65;74.47
15670;BME280;18524;45.190;5.732;2023-01-31T03:02:24;100269.94;;;3.81;72.52
15670;BME280;18524;45.190;5.732;2023-01-31T03:07:19;100277.84;;;3.51;73.88
15670;BME280;18524;45.190;5.732;2023-01-31T03:12:35;100282.78;;;3.59;74.85
15670;BME280;18524;45.190;5.732;2023-01-31T03:18:04;100293.69;;;3.68;74.52
15670;BME280;18524;45.190;5.732;2023-01-31T03:23:00;100298.50;;;3.54;74.08
15670;BME280;18524;45.190;5.732;2023-01-31T03:27:54;100310.84;;;3.48;73.98
15670;BME280;18524;45.190;5.732;2023-01-31T03:32:54;100313.31;;;3.51;74.62
15670;BME280;18524;45.190;5.732;2023-01-31T03:37:54;100314.22;;;3.50;75.28
15670;BME280;18524;45.190;5.732;2023-01-31T03:47:55;100311.38;;;3.57;75.41
15670;BME280;18524;45.190;5.732;2023-01-31T03:53:01;100310.53;;;3.57;74.76
15670;BME280;18524;45.190;5.732;2023-01-31T03:57:58;100305.75;;;3.44;73.94
15670;BME280;18524;45.190;5.732;2023-01-31T04:02:55;100326.25;;;3.24;75.55
15670;BME280;18524;45.190;5.732;2023-01-31T04:07:46;100331.66;;;3.18;76.23
15670;BME280;18524;45.190;5.732;2023-01-31T04:12:37;100339.19;;;3.26;75.62
15670;BME280;18524;45.190;5.732;2023-01-31T04:17:28;100347.00;;;3.24;76.86
15670;BME280;18524;45.190;5.732;2023-01-31T04:22:18;100351.13;;;3.30;76.11
15670;BME280;18524;45.190;5.732;2023-01-31T04:27:08;100352.44;;;3.17;76.83
15670;BME280;18524;45.190;5.732;2023-01-31T04:31:59;100370.19;;;3.29;76.51
15670;BME280;18524;45.190;5.732;2023-01-31T04:36:49;100376.06;;;3.34;76.78
15670;BME280;18524;45.190;5.732;2023-01-31T04:41:39;100375.13;;;3.38;76.36
15670;BME280;18524;45.190;5.732;2023-01-31T04:46:30;100375.13;;;3.38;75.99
15670;BME280;18524;45.190;5.732;2023-01-31T04:51:20;100379.31;;;3.42;76.06
15670;BME280;18524;45.190;5.732;2023-01-31T04:56:10;100382.97;;;3.35;76.01
15670;BME280;18524;45.190;5.732;2023-01-31T05:01:01;100384.53;;;3.40;74.92
15670;BME280;18524;45.190;5.732;2023-01-31T05:05:51;100387.03;;;3.43;74.95
15670;BME280;18524;45.190;5.732;2023-01-31T05:10:42;100386.59;;;3.57;74.85
15670;BME280;18524;45.190;5.732;2023-01-31T05:15:32;100391.16;;;3.49;75.15
15670;BME280;18524;45.190;5.732;2023-01-31T05:20:22;100400.78;;;3.45;74.97
15670;BME280;18524;45.190;5.732;2023-01-31T05:25:13;100401.19;;;3.32;75.94
15670;BME280;18524;45.190;5.732;2023-01-31T05:30:04;100391.88;;;3.54;75.24
15670;BME280;18524;45.190;5.732;2023-01-31T05:34:55;100405.13;;;3.45;74.87
15670;BME280;18524;45.190;5.732;2023-01-31T05:39:45;100410.50;;;3.39;75.56
15670;BME280;18524;45.190;5.732;2023-01-31T05:44:36;100418.06;;;3.47;75.12
15670;BME280;18524;45.190;5.732;2023-01-31T05:49:26;100420.19;;;3.60;74.54
15670;BME280;18524;45.190;5.732;2023-01-31T05:54:21;100426.88;;;3.67;74.59
15670;BME280;18524;45.190;5.732;2023-01-31T05:59:11;100435.41;;;3.71;74.19
15670;BME280;18524;45.190;5.732;2023-01-31T06:04:01;100439.22;;;3.61;74.59
15670;BME280;18524;45.190;5.732;2023-01-31T06:08:52;100444.34;;;3.62;74.75
15670;BME280;18524;45.190;5.732;2023-01-31T06:13:42;100440.50;;;3.75;73.74
15670;BME280;18524;45.190;5.732;2023-01-31T06:18:33;100442.75;;;3.58;74.14
15670;BME280;18524;45.190;5.732;2023-01-31T06:23:23;100452.94;;;3.64;74.23
15670;BME280;18524;45.190;5.732;2023-01-31T06:28:13;100454.97;;;3.55;74.47
15670;BME280;18524;45.190;5.732;2023-01-31T06:33:04;100446.56;;;3.47;74.07
15670;BME280;18524;45.190;5.732;2023-01-31T06:37:54;100447.81;;;3.33;75.15
15670;BME280;18524;45.190;5.732;2023-01-31T06:42:45;100451.25;;;3.35;75.22
15670;BME280;18524;45.190;5.732;2023-01-31T06:47:35;100457.38;;;3.31;75.74
15670;BME280;18524;45.190;5.732;2023-01-31T06:52:25;100465.16;;;3.31;75.01
15670;BME280;18524;45.190;5.732;2023-01-31T06:57:16;100475.25;;;2.81;77.20
15670;BME280;18524;45.190;5.732;2023-01-31T07:02:06;100487.81;;;2.95;76.65
15670;BME280;18524;45.190;5.732;2023-01-31T07:06:58;100493.25;;;2.86;76.56
15670;BME280;18524;45.190;5.732;2023-01-31T07:11:48;100498.34;;;2.89;76.36
15670;BME280;18524;45.190;5.732;2023-01-31T07:16:39;100509.72;;;2.83;77.88
15670;BME280;18524;45.190;5.732;2023-01-31T07:21:29;100512.81;;;2.96;77.14
15670;BME280;18524;45.190;5.732;2023-01-31T07:26:19;100518.84;;;2.97;77.35
15670;BME280;18524;45.190;5.732;2023-01-31T07:31:12;100517.69;;;2.76;77.25
15670;BME280;18524;45.190;5.732;2023-01-31T07:36:03;100527.47;;;2.66;77.15
15670;BME280;18524;45.190;5.732;2023-01-31T07:40:58;100530.50;;;2.48;78.46
15670;BME280;18524;45.190;5.732;2023-01-31T07:45:48;100540.84;;;2.48;78.62
15670;BME280;18524;45.190;5.732;2023-01-31T07:50:39;100550.31;;;2.49;78.94
15670;BME280;18524;45.190;5.732;2023-01-31T07:55:29;100546.78;;;2.53;79.19
15670;BME280;18524;45.190;5.732;2023-01-31T08:00:20;100562.56;;;2.78;78.74
15670;BME280;18524;45.190;5.732;2023-01-31T08:05:29;100561.94;;;2.68;78.18
15670;BME280;18524;45.190;5.732;2023-01-31T08:10:19;100570.59;;;2.67;78.45
15670;BME280;18524;45.190;5.732;2023-01-31T08:15:10;100570.88;;;2.89;78.27
15670;BME280;18524;45.190;5.732;2023-01-31T08:20:00;100579.16;;;3.03;77.44
15670;BME280;18524;45.190;5.732;2023-01-31T08:24:51;100583.97;;;2.85;78.13
15670;BME280;18524;45.190;5.732;2023-01-31T08:29:42;100602.75;;;2.93;77.56
15670;BME280;18524;45.190;5.732;2023-01-31T08:34:32;100599.97;;;3.00;76.99
15670;BME280;18524;45.190;5.732;2023-01-31T08:39:22;100600.75;;;3.04;77.00
15670;BME280;18524;45.190;5.732;2023-01-31T08:44:13;100607.47;;;3.11;77.05
15670;BME280;18524;45.190;5.732;2023-01-31T08:49:04;100610.19;;;3.06;76.13
15670;BME280;18524;45.190;5.732;2023-01-31T08:53:55;100607.53;;;3.08;76.50
15670;BME280;18524;45.190;5.732;2023-01-31T08:58:46;100609.84;;;3.19;75.82
15670;BME280;18524;45.190;5.732;2023-01-31T09:03:37;100607.22;;;3.20;75.68
15670;BME280;18524;45.190;5.732;2023-01-31T09:08:28;100608.63;;;3.32;75.36
15670;BME280;18524;45.190;5.732;2023-01-31T09:13:19;100619.03;;;3.30;75.60
15670;BME280;18524;45.190;5.732;2023-01-31T09:18:09;100615.06;;;3.50;75.53
15670;BME280;18524;45.190;5.732;2023-01-31T09:23:00;100617.16;;;3.66;74.82
15670;BME280;18524;45.190;5.732;2023-01-31T09:27:53;100624.28;;;3.89;74.15
15670;BME280;18524;45.190;5.732;2023-01-31T09:32:44;100627.53;;;4.25;72.49
15670;BME280;18524;45.190;5.732;2023-01-31T09:37:35;100631.16;;;4.48;71.66
15670;BME280;18524;45.190;5.732;2023-01-31T09:42:29;100631.31;;;4.69;71.02
15670;BME280;18524;45.190;5.732;2023-01-31T09:52:10;100632.09;;;5.24;69.48
15670;BME280;18524;45.190;5.732;2023-01-31T10:02:24;100620.94;;;5.69;69.05
15670;BME280;18524;45.190;5.732;2023-01-31T10:12:16;100631.75;;;6.05;65.87
15670;BME280;18524;45.190;5.732;2023-01-31T10:22:13;100599.16;;;5.72;64.63
15670;BME280;18524;45.190;5.732;2023-01-31T10:27:16;100601.19;;;5.63;64.89
15670;BME280;18524;45.190;5.732;2023-01-31T10:32:23;100595.56;;;5.74;64.63
15670;BME280;18524;45.190;5.732;2023-01-31T10:47:21;100597.09;;;6.69;61.08
15670;BME280;18524;45.190;5.732;2023-01-31T10:57:17;100591.78;;;6.50;62.64
15670;BME280;18524;45.190;5.732;2023-01-31T11:02:22;100592.09;;;5.99;64.02
15670;BME280;18524;45.190;5.732;2023-01-31T11:07:13;100569.75;;;6.15;64.14
15670;BME280;18524;45.190;5.732;2023-01-31T11:12:06;100554.19;;;6.35;63.82
15670;BME280;18524;45.190;5.732;2023-01-31T11:17:06;100543.25;;;6.68;62.14
15670;BME280;18524;45.190;5.732;2023-01-31T11:21:58;100524.72;;;7.14;61.05
15670;BME280;18524;45.190;5.732;2023-01-31T11:26:54;100518.28;;;7.61;59.69
15670;BME280;18524;45.190;5.732;2023-01-31T11:31:47;100500.09;;;8.31;58.94
15670;BME280;18524;45.190;5.732;2023-01-31T11:36:42;100484.44;;;8.66;57.21
15670;BME280;18524;45.190;5.732;2023-01-31T11:41:36;100477.81;;;8.76;56.81
15670;BME280;18524;45.190;5.732;2023-01-31T11:46:26;100477.91;;;8.90;56.75
15670;BME280;18524;45.190;5.732;2023-01-31T11:51:25;100462.47;;;9.19;56.27
15670;BME280;18524;45.190;5.732;2023-01-31T11:56:25;100453.88;;;9.32;55.33
15670;BME280;18524;45.190;5.732;2023-01-31T12:01:20;100448.53;;;9.65;54.84
15670;BME280;18524;45.190;5.732;2023-01-31T12:06:28;100443.53;;;9.92;54.36
15670;BME280;18524;45.190;5.732;2023-01-31T12:16:10;100424.63;;;10.17;52.87
15670;BME280;18524;45.190;5.732;2023-01-31T12:21:23;100404.47;;;10.03;53.25
15670;BME280;18524;45.190;5.732;2023-01-31T12:26:37;100399.34;;;9.86;53.52
15670;BME280;18524;45.190;5.732;2023-01-31T12:31:48;100399.06;;;9.91;52.75
15670;BME280;18524;45.190;5.732;2023-01-31T12:47:41;100371.53;;;10.58;53.41
15670;BME280;18524;45.190;5.732;2023-01-31T13:08:27;100354.38;;;10.67;52.84
15670;BME280;18524;45.190;5.732;2023-01-31T13:13:32;100343.66;;;10.98;53.04
15670;BME280;18524;45.190;5.732;2023-01-31T13:18:26;100335.69;;;11.00;51.80
15670;BME280;18524;45.190;5.732;2023-01-31T13:23:39;100325.19;;;11.00;51.88
15670;BME280;18524;45.190;5.732;2023-01-31T13:28:36;100314.94;;;11.09;52.34
15670;BME280;18524;45.190;5.732;2023-01-31T13:33:42;100306.41;;;11.06;52.55
15670;BME280;18524;45.190;5.732;2023-01-31T13:38:41;100301.50;;;10.87;52.69
15670;BME280;18524;45.190;5.732;2023-01-31T13:43:32;100314.66;;;10.58;52.78
15670;BME280;18524;45.190;5.732;2023-01-31T13:48:59;100314.38;;;10.49;53.60
15670;BME280;18524;45.190;5.732;2023-01-31T13:58:50;100307.91;;;10.54;53.46
15670;BME280;18524;45.190;5.732;2023-01-31T14:14:20;100296.56;;;10.68;53.56
15670;BME280;18524;45.190;5.732;2023-01-31T14:29:40;100298.69;;;10.19;52.88
15670;BME280;18524;45.190;5.732;2023-01-31T14:34:32;100309.03;;;10.22;53.45
15670;BME280;18524;45.190;5.732;2023-01-31T14:45:00;100311.63;;;9.78;55.68
15670;BME280;18524;45.190;5.732;2023-01-31T15:15:53;100320.66;;;10.02;54.77
15670;BME280;18524;45.190;5.732;2023-01-31T15:20:48;100321.78;;;9.98;55.12
15670;BME280;18524;45.190;5.732;2023-01-31T15:25:43;100306.69;;;9.87;54.52
15670;BME280;18524;45.190;5.732;2023-01-31T15:30:35;100314.00;;;9.96;55.33
15670;BME280;18524;45.190;5.732;2023-01-31T15:35:29;100317.75;;;9.92;55.04
15670;BME280;18524;45.190;5.732;2023-01-31T15:40:23;100321.00;;;9.82;54.11
15670;BME280;18524;45.190;5.732;2023-01-31T15:45:27;100317.53;;;9.81;55.63
15670;BME280;18524;45.190;5.732;2023-01-31T15:50:20;100330.34;;;9.71;56.24
15670;BME280;18524;45.190;5.732;2023-01-31T15:55:13;100339.31;;;9.67;56.19
15670;BME280;18524;45.190;5.732;2023-01-31T16:00:04;100329.50;;;9.71;56.25
15670;BME280;18524;45.190;5.732;2023-01-31T16:04:55;100339.22;;;9.69;56.86
15670;BME280;18524;45.190;5.732;2023-01-31T16:09:47;100336.50;;;9.70;57.36
15670;BME280;18524;45.190;5.732;2023-01-31T16:14:37;100345.13;;;9.57;57.81
15670;BME280;18524;45.190;5.732;2023-01-31T16:19:32;100347.84;;;9.55;57.96
15670;BME280;18524;45.190;5.732;2023-01-31T16:24:25;100348.38;;;9.46;58.55
15670;BME280;18524;45.190;5.732;2023-01-31T16:29:18;100344.41;;;9.39;58.54
15670;BME280;18524;45.190;5.732;2023-01-31T16:34:26;100349.47;;;9.26;58.62
15670;BME280;18524;45.190;5.732;2023-01-31T16:39:37;100341.41;;;9.31;58.70
15670;BME280;18524;45.190;5.732;2023-01-31T16:44:32;100351.94;;;9.29;57.41
15670;BME280;18524;45.190;5.732;2023-01-31T16:49:29;100356.25;;;9.15;57.87
15670;BME280;18524;45.190;5.732;2023-01-31T16:54:28;100365.28;;;9.09;58.52
15670;BME280;18524;45.190;5.732;2023-01-31T17:04:27;100372.72;;;9.01;59.78
15670;BME280;18524;45.190;5.732;2023-01-31T17:09:20;100377.22;;;8.82;59.49
15670;BME280;18524;45.190;5.732;2023-01-31T17:14:11;100380.09;;;8.77;60.99
15670;BME280;18524;45.190;5.732;2023-01-31T17:19:02;100391.91;;;8.68;60.80
15670;BME280;18524;45.190;5.732;2023-01-31T17:23:52;100394.91;;;8.61;61.34
15670;BME280;18524;45.190;5.732;2023-01-31T17:28:43;100400.84;;;8.47;61.53
15670;BME280;18524;45.190;5.732;2023-01-31T17:33:33;100404.94;;;8.35;60.85
15670;BME280;18524;45.190;5.732;2023-01-31T17:38:24;100418.69;;;8.22;62.62
15670;BME280;18524;45.190;5.732;2023-01-31T17:43:19;100414.47;;;8.19;63.33
15670;BME280;18524;45.190;5.732;2023-01-31T17:48:11;100413.75;;;8.15;63.30
15670;BME280;18524;45.190;5.732;2023-01-31T17:53:01;100424.75;;;8.05;63.96
15670;BME280;18524;45.190;5.732;2023-01-31T17:57:51;100426.28;;;8.09;62.10
15670;BME280;18524;45.190;5.732;2023-01-31T18:02:42;100420.19;;;7.91;62.84
15670;BME280;18524;45.190;5.732;2023-01-31T18:07:33;100411.38;;;7.94;62.86
15670;BME280;18524;45.190;5.732;2023-01-31T18:12:23;100408.91;;;7.91;63.21
15670;BME280;18524;45.190;5.732;2023-01-31T18:17:13;100402.16;;;7.87;63.89
15670;BME280;18524;45.190;5.732;2023-01-31T18:22:04;100417.06;;;7.84;64.08
15670;BME280;18524;45.190;5.732;2023-01-31T18:26:54;100413.53;;;7.86;63.67
15670;BME280;18524;45.190;5.732;2023-01-31T18:31:46;100409.91;;;7.88;63.87
15670;BME280;18524;45.190;5.732;2023-01-31T18:36:37;100420.59;;;7.83;63.02
15670;BME280;18524;45.190;5.732;2023-01-31T18:41:28;100393.44;;;7.69;63.66
15670;BME280;18524;45.190;5.732;2023-01-31T18:46:19;100395.41;;;7.46;65.36
15670;BME280;18524;45.190;5.732;2023-01-31T18:51:12;100387.84;;;7.40;65.76
15670;BME280;18524;45.190;5.732;2023-01-31T18:56:08;100399.13;;;7.41;65.78
15670;BME280;18524;45.190;5.732;2023-01-31T19:01:10;100399.63;;;7.30;65.89
15670;BME280;18524;45.190;5.732;2023-01-31T19:06:18;100388.34;;;7.30;65.16
15670;BME280;18524;45.190;5.732;2023-01-31T19:11:11;100377.84;;;7.31;65.01
15670;BME280;18524;45.190;5.732;2023-01-31T19:16:05;100387.94;;;7.20;66.45
15670;BME280;18524;45.190;5.732;2023-01-31T19:20:56;100392.81;;;7.09;66.76
15670;BME280;18524;45.190;5.732;2023-01-31T19:25:46;100396.19;;;7.11;66.46
15670;BME280;18524;45.190;5.732;2023-01-31T19:30:37;100396.75;;;7.17;66.45
15670;BME280;18524;45.190;5.732;2023-01-31T19:35:28;100413.97;;;7.21;66.53
15670;BME280;18524;45.190;5.732;2023-01-31T19:40:19;100421.78;;;7.21;66.07
15670;BME280;18524;45.190;5.732;2023-01-31T19:45:10;100429.81;;;6.98;65.69
15670;BME280;18524;45.190;5.732;2023-01-31T19:50:00;100432.53;;;6.76;67.66
15670;BME280;18524;45.190;5.732;2023-01-31T19:54:51;100434.56;;;6.70;68.18
15670;BME280;18524;45.190;5.732;2023-01-31T19:59:41;100437.41;;;6.84;68.33
15670;BME280;18524;45.190;5.732;2023-01-31T20:04:33;100438.13;;;6.87;67.51
15670;BME280;18524;45.190;5.732;2023-01-31T20:09:23;100433.19;;;6.61;68.43
15670;BME280;18524;45.190;5.732;2023-01-31T20:14:14;100431.13;;;6.69;67.44
15670;BME280;18524;45.190;5.732;2023-01-31T20:19:04;100437.19;;;6.49;68.71
15670;BME280;18524;45.190;5.732;2023-01-31T20:23:55;100435.09;;;6.57;68.05
15670;BME280;18524;45.190;5.732;2023-01-31T20:28:46;100430.94;;;6.33;68.17
15670;BME280;18524;45.190;5.732;2023-01-31T20:33:37;100434.50;;;6.31;68.54
15670;BME280;18524;45.190;5.732;2023-01-31T20:38:27;100445.63;;;6.14;69.08
15670;BME280;18524;45.190;5.732;2023-01-31T20:43:20;100451.09;;;6.28;68.79
15670;BME280;18524;45.190;5.732;2023-01-31T20:48:10;100454.75;;;6.04;69.03
15670;BME280;18524;45.190;5.732;2023-01-31T20:53:01;100457.81;;;5.91;69.63
15670;BME280;18524;45.190;5.732;2023-01-31T20:57:51;100453.63;;;5.87;69.85
15670;BME280;18524;45.190;5.732;2023-01-31T21:02:42;100458.28;;;5.79;70.75
15670;BME280;18524;45.190;5.732;2023-01-31T21:07:32;100464.50;;;5.99;69.87
15670;BME280;18524;45.190;5.732;2023-01-31T21:12:23;100455.09;;;5.73;71.77
15670;BME280;18524;45.190;5.732;2023-01-31T21:17:13;100464.34;;;5.80;71.72
15670;BME280;18524;45.190;5.732;2023-01-31T21:22:03;100458.56;;;5.95;70.29
15670;BME280;18524;45.190;5.732;2023-01-31T21:26:54;100452.81;;;5.85;70.06
15670;BME280;18524;45.190;5.732;2023-01-31T21:31:44;100454.41;;;5.68;70.99
15670;BME280;18524;45.190;5.732;2023-01-31T21:36:34;100461.84;;;5.55;71.74
15670;BME280;18524;45.190;5.732;2023-01-31T21:41:25;100460.38;;;5.48;71.58
15670;BME280;18524;45.190;5.732;2023-01-31T21:46:34;100461.16;;;5.28;73.04
15670;BME280;18524;45.190;5.732;2023-01-31T21:51:25;100447.88;;;5.12;72.74
15670;BME280;18524;45.190;5.732;2023-01-31T21:56:18;100441.13;;;5.30;72.53
15670;BME280;18524;45.190;5.732;2023-01-31T22:01:22;100445.88;;;5.19;72.85
15670;BME280;18524;45.190;5.732;2023-01-31T22:06:14;100440.97;;;5.11;73.45
15670;BME280;18524;45.190;5.732;2023-01-31T22:11:10;100447.66;;;4.95;73.57
15670;BME280;18524;45.190;5.732;2023-01-31T22:16:03;100440.88;;;4.91;74.63
15670;BME280;18524;45.190;5.732;2023-01-31T22:21:08;100439.13;;;4.91;74.44
15670;BME280;18524;45.190;5.732;2023-01-31T22:26:19;100438.88;;;4.97;73.63
15670;BME280;18524;45.190;5.732;2023-01-31T22:31:11;100438.38;;;4.88;74.98
15670;BME280;18524;45.190;5.732;2023-01-31T22:36:03;100435.31;;;5.00;74.35
15670;BME280;18524;45.190;5.732;2023-01-31T22:41:01;100442.50;;;4.93;74.73
15670;BME280;18524;45.190;5.732;2023-01-31T22:45:54;100446.38;;;4.82;75.10
15670;BME280;18524;45.190;5.732;2023-01-31T22:50:52;100445.38;;;4.86;75.55
15670;BME280;18524;45.190;5.732;2023-01-31T22:55:43;100439.34;;;4.85;75.68
15670;BME280;18524;45.190;5.732;2023-01-31T23:00:34;100448.91;;;4.85;76.10
15670;BME280;18524;45.190;5.732;2023-01-31T23:05:25;100444.91;;;4.75;75.79
15670;BME280;18524;45.190;5.732;2023-01-31T23:10:17;100440.88;;;4.66;76.77
15670;BME280;18524;45.190;5.732;2023-01-31T23:15:11;100437.91;;;4.77;76.42
15670;BME280;18524;45.190;5.732;2023-01-31T23:20:09;100440.50;;;4.77;76.75
15670;BME280;18524;45.190;5.732;2023-01-31T23:24:59;100431.28;;;4.68;76.63
15670;BME280;18524;45.190;5.732;2023-01-31T23:29:50;100429.47;;;4.47;77.77
15670;BME280;18524;45.190;5.732;2023-01-31T23:34:40;100420.09;;;4.41;77.80
15670;BME280;18524;45.190;5.732;2023-01-31T23:39:31;100425.13;;;4.47;77.90
15670;BME280;18524;45.190;5.732;2023-01-31T23:44:21;100423.03;;;4.32;78.13
15670;BME280;18524;45.190;5.732;2023-01-31T23:49:11;100431.19;;;4.21;79.41
15670;BME280;18524;45.190;5.732;2023-01-31T23:54:02;100422.41;;;4.25;78.01
15670;BME280;18524;45.190;5.732;2023-01-31T23:58:52;100415.72;;;4.18;78.50
